Time,TemperatureF,DewpointF,PressureIn,WindDirection,WindDirectionDegrees,WindSpeedMPH,WindSpeedGustMPH,Humidity,HourlyPrecipIn,Conditions,Clouds,dailyrainin,SoftwareType,DateUTC
2013-05-15 00:02:00,71.2,61.0,29.86,SSE,162,1.0,6.0,70,0.00,,,0.00,weatherlink.com 1.10,2013-05-15 04:02:00,
2013-05-15 00:17:00,72.7,61.0,29.86,SSW,200,1.0,5.0,66,0.00,,,0.00,weatherlink.com 1.10,2013-05-15 04:17:00,
2013-05-15 00:32:00,73.1,61.0,29.86,WSW,252,2.0,8.0,65,0.00,,,0.00,weatherlink.com 1.10,2013-05-15 04:32:00,
2013-05-15 00:48:00,73.4,61.0,29.86,SW,221,0.0,6.0,65,0.00,,,0.00,weatherlink.com 1.10,2013-05-15 04:48:00,
2013-05-15 01:03:00,73.2,60.0,29.86,SW,215,0.0,5.0,64,0.00,,,0.00,weatherlink.com 1.10,2013-05-15 05:03:00,
2013-05-15 01:18:00,73.1,61.0,29.86,WSW,239,2.0,4.0,65,0.00,,,0.00,weatherlink.com 1.10,2013-05-15 05:18:00,
2013-05-15 01:33:00,73.0,60.0,29.86,WNW,297,2.0,5.0,65,0.00,,,0.00,weatherlink.com 1.10,2013-05-15 05:33:00,
2013-05-15 01:48:00,72.6,60.0,29.86,SSW,204,2.0,6.0,65,0.00,,,0.00,weatherlink.com 1.10,2013-05-15 05:48:00,
2013-05-15 02:03:00,72.6,61.0,29.86,SW,235,5.0,7.0,66,0.00,,,0.00,weatherlink.com 1.10,2013-05-15 06:03:00,
2013-05-15 02:18:00,72.5,60.0,29.85,SW,220,2.0,7.0,66,0.00,,,0.00,weatherlink.com 1.10,2013-05-15 06:18:00,
2013-05-15 02:33:00,72.7,60.0,29.85,WSW,239,5.0,12.0,65,0.00,,,0.00,weatherlink.com 1.10,2013-05-15 06:33:00,
2013-05-15 02:48:00,72.6,61.0,29.85,WSW,245,2.0,7.0,66,0.00,,,0.00,weatherlink.com 1.10,2013-05-15 06:48:00,
2013-05-15 03:03:00,72.2,60.0,29.84,SW,222,2.0,8.0,66,0.00,,,0.00,weatherlink.com 1.10,2013-05-15 07:03:00,
2013-05-15 03:18:00,72.3,60.0,29.85,WSW,250,4.0,7.0,66,0.00,,,0.00,weatherlink.com 1.10,2013-05-15 07:18:00,
2013-05-15 03:33:00,71.7,60.0,29.85,SW,221,2.0,5.0,67,0.00,,,0.00,weatherlink.com 1.10,2013-05-15 07:33:00,
2013-05-15 03:48:00,71.7,60.0,29.86,SW,219,2.0,9.0,67,0.00,,,0.00,weatherlink.com 1.10,2013-05-15 07:48:00,
2013-05-15 04:03:00,71.4,60.0,29.87,WSW,239,1.0,7.0,68,0.00,,,0.00,weatherlink.com 1.10,2013-05-15 08:03:00,
2013-05-15 04:18:00,71.1,60.0,29.86,SSW,204,2.0,7.0,68,0.00,,,0.00,weatherlink.com 1.10,2013-05-15 08:18:00,
2013-05-15 04:33:00,70.6,60.0,29.86,SW,221,2.0,6.0,70,0.00,,,0.00,weatherlink.com 1.10,2013-05-15 08:33:00,
2013-05-15 04:48:00,69.8,60.0,29.86,SSW,195,1.0,4.0,71,0.00,,,0.00,weatherlink.com 1.10,2013-05-15 08:48:00,
2013-05-15 05:03:00,69.4,60.0,29.86,WSW,239,0.0,6.0,72,0.00,,,0.00,weatherlink.com 1.10,2013-05-15 09:03:00,
2013-05-15 05:18:00,69.1,60.0,29.86,SW,236,0.0,5.0,72,0.00,,,0.00,weatherlink.com 1.10,2013-05-15 09:18:00,
2013-05-15 05:33:00,-999.0,-99.9,29.86,North,-999,-999.0,-999.0,-999,0.00,,,0.00,weatherlink.com 1.10,2013-05-15 09:33:00,
2013-05-15 05:48:00,-999.0,-99.9,29.87,North,-999,-999.0,-999.0,-999,0.00,,,0.00,weatherlink.com 1.10,2013-05-15 09:48:00,
2013-05-15 06:03:00,-999.0,-99.9,29.88,North,-999,-999.0,-999.0,-999,0.00,,,0.00,weatherlink.com 1.10,2013-05-15 10:03:00,
2013-05-15 06:18:00,-999.0,-99.9,29.88,North,-999,-999.0,-999.0,-999,0.00,,,0.00,weatherlink.com 1.10,2013-05-15 10:18:00,
2013-05-15 06:33:00,-999.0,-99.9,29.88,North,-999,-999.0,-999.0,-999,0.00,,,0.00,weatherlink.com 1.10,2013-05-15 10:33:00,
2013-05-15 06:48:00,-999.0,-99.9,29.89,North,-999,-999.0,-999.0,-999,0.00,,,0.00,weatherlink.com 1.10,2013-05-15 10:48:00,
2013-05-15 07:03:00,-999.0,-99.9,29.89,North,-999,-999.0,-999.0,-999,0.00,,,0.00,weatherlink.com 1.10,2013-05-15 11:03:00,
2013-05-15 07:18:00,-999.0,-99.9,29.89,North,-999,-999.0,-999.0,-999,0.00,,,0.00,weatherlink.com 1.10,2013-05-15 11:18:00,
2013-05-15 07:34:00,70.5,61.0,29.89,West,260,1.0,4.0,71,0.00,,,0.00,weatherlink.com 1.10,2013-05-15 11:34:00,
2013-05-15 07:49:00,71.6,61.0,29.89,SW,233,1.0,5.0,69,0.00,,,0.00,weatherlink.com 1.10,2013-05-15 11:49:00,
2013-05-15 08:04:00,72.4,61.0,29.90,SSW,201,3.0,6.0,68,0.00,,,0.00,weatherlink.com 1.10,2013-05-15 12:04:00,
2013-05-15 08:49:00,75.0,61.0,29.90,SW,217,2.0,12.0,62,0.00,,,0.00,weatherlink.com 1.10,2013-05-15 12:49:00,
2013-05-15 09:04:00,75.9,62.0,29.90,SW,219,1.0,8.0,62,0.00,,,0.00,weatherlink.com 1.10,2013-05-15 13:04:00,
2013-05-15 09:19:00,76.9,61.0,29.90,WSW,239,5.0,9.0,59,0.00,,,0.00,weatherlink.com 1.10,2013-05-15 13:19:00,
2013-05-15 09:34:00,77.8,62.0,29.91,SSW,211,1.0,9.0,58,0.00,,,0.00,weatherlink.com 1.10,2013-05-15 13:34:00,
2013-05-15 10:04:00,79.4,62.0,29.90,SW,231,6.0,10.0,55,0.00,,,0.00,weatherlink.com 1.10,2013-05-15 14:04:00,
2013-05-15 10:19:00,80.2,61.0,29.90,WSW,246,8.0,11.0,53,0.00,,,0.00,weatherlink.com 1.10,2013-05-15 14:19:00,
2013-05-15 10:49:00,81.1,61.0,29.90,SW,228,6.0,13.0,51,0.00,,,0.00,weatherlink.com 1.10,2013-05-15 14:49:00,
2013-05-15 11:19:00,82.5,62.0,29.89,WSW,256,8.0,12.0,50,0.00,,,0.00,weatherlink.com 1.10,2013-05-15 15:19:00,
2013-05-15 11:49:00,83.2,62.0,29.89,ENE,58,6.0,14.0,49,0.00,,,0.00,weatherlink.com 1.10,2013-05-15 15:49:00,
2013-05-15 12:04:00,83.4,61.0,29.90,WSW,246,4.0,16.0,47,0.00,,,0.00,weatherlink.com 1.10,2013-05-15 16:04:00,
2013-05-15 12:35:00,84.8,62.0,29.89,SSW,203,3.0,9.0,47,0.00,,,0.00,weatherlink.com 1.10,2013-05-15 16:35:00,
2013-05-15 12:50:00,84.8,64.0,29.89,SSW,211,6.0,13.0,49,0.00,,,0.00,weatherlink.com 1.10,2013-05-15 16:50:00,
2013-05-15 13:05:00,84.9,62.0,29.88,SW,228,11.0,14.0,47,0.00,,,0.00,weatherlink.com 1.10,2013-05-15 17:05:00,
2013-05-15 13:20:00,85.5,63.0,29.88,South,188,3.0,11.0,47,0.00,,,0.00,weatherlink.com 1.10,2013-05-15 17:20:00,
2013-05-15 13:35:00,85.7,63.0,29.88,North,356,5.0,17.0,47,0.00,,,0.00,weatherlink.com 1.10,2013-05-15 17:35:00,
2013-05-15 13:50:00,86.2,62.0,29.87,WSW,238,8.0,14.0,44,0.00,,,0.00,weatherlink.com 1.10,2013-05-15 17:50:00,
2013-05-15 14:05:00,86.4,61.0,29.86,SW,229,11.0,18.0,43,0.00,,,0.00,weatherlink.com 1.10,2013-05-15 18:05:00,
2013-05-15 14:35:00,87.4,63.0,29.86,SSW,200,2.0,11.0,44,0.00,,,0.00,weatherlink.com 1.10,2013-05-15 18:35:00,
2013-05-15 15:05:00,87.6,62.0,29.85,WSW,249,7.0,15.0,42,0.00,,,0.00,weatherlink.com 1.10,2013-05-15 19:05:00,
2013-05-15 15:20:00,88.0,61.0,29.85,SW,233,9.0,12.0,41,0.00,,,0.00,weatherlink.com 1.10,2013-05-15 19:20:00,
2013-05-15 15:35:00,88.2,62.0,29.84,North,1,3.0,11.0,42,0.00,,,0.00,weatherlink.com 1.10,2013-05-15 19:35:00,
2013-05-15 15:50:00,88.6,63.0,29.83,WSW,245,5.0,13.0,43,0.00,,,0.00,weatherlink.com 1.10,2013-05-15 19:50:00,
2013-05-15 16:05:00,88.4,62.0,29.83,SW,215,12.0,14.0,42,0.00,,,0.00,weatherlink.com 1.10,2013-05-15 20:05:00,
2013-05-15 16:20:00,87.9,61.0,29.82,SW,233,6.0,12.0,40,0.00,,,0.00,weatherlink.com 1.10,2013-05-15 20:20:00,
2013-05-15 16:35:00,88.2,61.0,29.82,SE,127,8.0,13.0,40,0.00,,,0.00,weatherlink.com 1.10,2013-05-15 20:35:00,
2013-05-15 16:50:00,88.7,63.0,29.82,SSW,208,1.0,10.0,42,0.00,,,0.00,weatherlink.com 1.10,2013-05-15 20:50:00,
2013-05-15 17:05:00,88.2,61.0,29.81,WSW,240,6.0,13.0,40,0.00,,,0.00,weatherlink.com 1.10,2013-05-15 21:05:00,
2013-05-15 17:20:00,87.9,62.0,29.81,SW,222,6.0,13.0,42,0.00,,,0.00,weatherlink.com 1.10,2013-05-15 21:20:00,
2013-05-15 17:35:00,87.7,61.0,29.81,SSW,194,3.0,16.0,41,0.00,,,0.00,weatherlink.com 1.10,2013-05-15 21:35:00,
2013-05-15 17:50:00,87.7,61.0,29.81,SW,226,11.0,11.0,41,0.00,,,0.00,weatherlink.com 1.10,2013-05-15 21:50:00,
2013-05-15 18:05:00,87.3,61.0,29.80,SW,235,5.0,12.0,42,0.00,,,0.00,weatherlink.com 1.10,2013-05-15 22:05:00,
2013-05-15 18:20:00,87.0,61.0,29.80,SW,219,3.0,13.0,41,0.00,,,0.00,weatherlink.com 1.10,2013-05-15 22:20:00,
2013-05-15 18:35:00,86.9,60.0,29.80,SSW,209,4.0,13.0,40,0.00,,,0.00,weatherlink.com 1.10,2013-05-15 22:35:00,
2013-05-15 18:50:00,86.0,60.0,29.80,SSW,193,2.0,7.0,41,0.00,,,0.00,weatherlink.com 1.10,2013-05-15 22:50:00,
2013-05-15 19:05:00,85.6,59.0,29.80,SSW,198,5.0,7.0,40,0.00,,,0.00,weatherlink.com 1.10,2013-05-15 23:05:00,
2013-05-15 19:20:00,84.8,59.0,29.81,SW,221,2.0,8.0,42,0.00,,,0.00,weatherlink.com 1.10,2013-05-15 23:20:00,
2013-05-15 19:50:00,82.8,58.0,29.81,South,170,3.0,7.0,43,0.00,,,0.00,weatherlink.com 1.10,2013-05-15 23:50:00,
2013-05-15 20:05:00,82.0,59.0,29.82,South,171,1.0,7.0,45,0.00,,,0.00,weatherlink.com 1.10,2013-05-16 00:05:00,
2013-05-15 20:20:00,81.2,58.0,29.82,SW,233,1.0,8.0,46,0.00,,,0.00,weatherlink.com 1.10,2013-05-16 00:20:00,
2013-05-15 20:35:00,80.7,59.0,29.82,SSW,193,3.0,6.0,47,0.00,,,0.00,weatherlink.com 1.10,2013-05-16 00:35:00,
2013-05-15 20:50:00,79.7,58.0,29.83,SW,226,1.0,5.0,48,0.00,,,0.00,weatherlink.com 1.10,2013-05-16 00:50:00,
2013-05-15 21:05:00,78.8,59.0,29.83,SW,229,3.0,5.0,50,0.00,,,0.00,weatherlink.com 1.10,2013-05-16 01:05:00,
2013-05-15 21:20:00,78.1,58.0,29.84,WSW,238,0.0,5.0,51,0.00,,,0.00,weatherlink.com 1.10,2013-05-16 01:20:00,
2013-05-15 21:35:00,77.2,58.0,29.84,SW,221,2.0,2.0,52,0.00,,,0.00,weatherlink.com 1.10,2013-05-16 01:35:00,
2013-05-15 21:50:00,76.4,58.0,29.84,WSW,245,0.0,2.0,54,0.00,,,0.00,weatherlink.com 1.10,2013-05-16 01:50:00,
2013-05-15 22:05:00,76.1,58.0,29.85,SW,225,1.0,5.0,54,0.00,,,0.00,weatherlink.com 1.10,2013-05-16 02:05:00,
2013-05-15 22:36:00,75.3,58.0,29.85,West,266,0.0,3.0,56,0.00,,,0.00,weatherlink.com 1.10,2013-05-16 02:36:00,
2013-05-15 22:51:00,75.0,58.0,29.85,SW,236,0.0,3.0,56,0.00,,,0.00,weatherlink.com 1.10,2013-05-16 02:51:00,
2013-05-15 23:06:00,75.0,58.0,29.85,WSW,242,1.0,5.0,56,0.00,,,0.00,weatherlink.com 1.10,2013-05-16 03:06:00,
2013-05-15 23:21:00,75.0,58.0,29.84,SW,218,0.0,6.0,56,0.00,,,0.00,weatherlink.com 1.10,2013-05-16 03:21:00,
2013-05-15 23:36:00,74.9,59.0,29.84,SW,225,0.0,6.0,57,0.00,,,0.00,weatherlink.com 1.10,2013-05-16 03:36:00,
2013-05-15 23:51:00,74.8,58.0,29.84,SSW,200,2.0,7.0,56,0.00,,,0.00,weatherlink.com 1.10,2013-05-16 03:51:00,